Time;durP1;ratioP1;P1;durP2;ratioP2;P2;SDS_P1;SDS_P2;PMS_P1;PMS_P2;Temp;Humidity;BMP_temperature;BMP_pressure;BME280_temperature;BME280_humidity;BME280_pressure;Samples;Min_cycle;Max_cycle;Signal;HPM_P1;HPM_P2
2022/07/30 00:00:56;;;;;;;4.78;4.05;;;;;;;;;;5026148;28;20033;-69
2022/07/30 00:03:21;;;;;;;4.30;3.90;;;;;;;;;;5018952;28;20133;-69
2022/07/30 00:05:47;;;;;;;5.85;4.13;;;;;;;;;;5025439;28;20120;-69
2022/07/30 00:08:12;;;;;;;5.40;4.28;;;;;;;;;;5037129;28;20037;-70
2022/07/30 00:10:38;;;;;;;5.07;4.22;;;;;;;;;;5027002;28;20041;-69
2022/07/30 00:13:04;;;;;;;4.78;4.30;;;;;;;;;;5029794;28;20320;-70
2022/07/30 00:15:29;;;;;;;5.15;4.10;;;;;;;;;;5029704;28;20484;-69
2022/07/30 00:17:54;;;;;;;5.65;3.97;;;;;;;;;;5031140;28;20060;-70
2022/07/30 00:20:20;;;;;;;5.10;4.28;;;;;;;;;;5032813;28;20029;-69
2022/07/30 00:22:45;;;;;;;6.95;4.20;;;;;;;;;;5044806;28;20466;-70
2022/07/30 00:25:11;;;;;;;6.35;4.82;;;;;;;;;;5025784;28;20030;-69
2022/07/30 00:27:36;;;;;;;5.20;4.20;;;;;;;;;;5031090;28;20597;-69
2022/07/30 00:30:03;;;;;;;4.55;3.97;;;;;;;;;;5023080;28;20143;-69
2022/07/30 00:32:29;;;;;;;6.07;4.00;;;;;;;;;;5030983;28;20036;-69
2022/07/30 00:34:54;;;;;;;6.18;4.10;;;;;;;;;;5029039;28;20038;-69
2022/07/30 00:37:20;;;;;;;7.60;4.75;;;;;;;;;;5016307;28;20041;-69
2022/07/30 00:39:45;;;;;;;5.35;4.20;;;;;;;;;;5047974;28;20029;-69
2022/07/30 00:42:11;;;;;;;5.10;4.07;;;;;;;;;;5033751;28;20398;-69
2022/07/30 00:44:36;;;;;;;5.78;4.57;;;;;;;;;;5028578;28;20196;-69
2022/07/30 00:47:01;;;;;;;5.65;4.22;;;;;;;;;;5029828;28;20037;-69
2022/07/30 00:49:27;;;;;;;5.75;4.43;;;;;;;;;;5024920;28;20387;-70
2022/07/30 00:51:53;;;;;;;5.82;4.53;;;;;;;;;;5023201;28;20091;-69
2022/07/30 00:54:19;;;;;;;4.72;4.30;;;;;;;;;;5038636;28;20493;-69
2022/07/30 00:56:46;;;;;;;5.60;4.60;;;;;;;;;;5036777;28;20060;-69
2022/07/30 00:59:12;;;;;;;6.35;4.07;;;;;;;;;;5024029;28;20036;-69
2022/07/30 01:01:37;;;;;;;5.00;4.13;;;;;;;;;;5025752;28;20462;-69
2022/07/30 01:04:03;;;;;;;5.05;4.45;;;;;;;;;;5018679;28;20542;-70
2022/07/30 01:06:28;;;;;;;4.60;3.80;;;;;;;;;;5030191;28;20033;-70
2022/07/30 01:08:54;;;;;;;5.25;4.20;;;;;;;;;;5035161;28;20025;-70
2022/07/30 01:11:21;;;;;;;6.22;4.40;;;;;;;;;;5033590;28;20017;-70
2022/07/30 01:13:47;;;;;;;5.22;4.07;;;;;;;;;;5030084;28;20035;-69
2022/07/30 01:16:13;;;;;;;5.38;4.60;;;;;;;;;;5028397;28;20025;-69
2022/07/30 01:21:35;;;;;;;5.63;4.57;;;;;;;;;;5029456;28;20037;-70
2022/07/30 01:24:48;;;;;;;4.70;4.30;;;;;;;;;;5018379;28;20518;-70
2022/07/30 01:27:15;;;;;;;5.88;4.65;;;;;;;;;;4918477;29;20112;-70
2022/07/30 01:29:43;;;;;;;4.93;4.50;;;;;;;;;;4916889;29;20571;-70
2022/07/30 01:32:09;;;;;;;5.03;4.53;;;;;;;;;;4970180;28;20103;-70
2022/07/30 01:34:37;;;;;;;6.13;4.68;;;;;;;;;;5029657;28;20436;-69
2022/07/30 01:37:04;;;;;;;6.18;4.70;;;;;;;;;;5020924;28;20049;-69
2022/07/30 01:39:30;;;;;;;5.78;4.32;;;;;;;;;;5016041;28;20124;-70
2022/07/30 01:41:57;;;;;;;4.72;4.30;;;;;;;;;;5023313;28;20044;-69
2022/07/30 01:44:25;;;;;;;5.80;4.80;;;;;;;;;;5037960;28;20071;-70
2022/07/30 01:46:52;;;;;;;6.53;5.03;;;;;;;;;;5027186;28;20088;-69
2022/07/30 01:49:19;;;;;;;5.45;4.90;;;;;;;;;;5027676;28;20032;-70
2022/07/30 01:51:47;;;;;;;6.93;4.97;;;;;;;;;;5025878;28;20064;-69
2022/07/30 01:54:15;;;;;;;5.45;4.95;;;;;;;;;;5026781;28;20027;-69
2022/07/30 01:56:42;;;;;;;5.60;4.53;;;;;;;;;;5027872;28;20036;-69
2022/07/30 01:59:10;;;;;;;7.80;5.00;;;;;;;;;;5029514;28;20124;-69
2022/07/30 02:01:35;;;;;;;5.80;4.40;;;;;;;;;;5034373;28;20050;-69
2022/07/30 02:04:01;;;;;;;6.28;4.80;;;;;;;;;;5026251;28;20092;-70
2022/07/30 02:06:36;;;;;;;6.15;4.50;;;;;;;;;;5028783;28;20418;-70
2022/07/30 02:09:04;;;;;;;5.45;4.95;;;;;;;;;;5028363;28;20033;-69
2022/07/30 02:14:22;;;;;;;5.35;4.78;;;;;;;;;;5023647;28;20541;-69
2022/07/30 02:16:52;;;;;;;4.85;4.35;;;;;;;;;;5018506;28;20037;-69
2022/07/30 02:19:20;;;;;;;5.13;4.22;;;;;;;;;;5025641;28;20045;-69
2022/07/30 02:21:49;;;;;;;6.18;4.60;;;;;;;;;;5035562;28;20470;-69
2022/07/30 02:24:20;;;;;;;7.47;4.53;;;;;;;;;;5034893;28;20078;-70
2022/07/30 02:26:50;;;;;;;4.68;4.28;;;;;;;;;;5027769;28;20375;-70
2022/07/30 02:29:18;;;;;;;7.75;4.95;;;;;;;;;;5029280;28;20040;-69
2022/07/30 02:31:44;;;;;;;5.60;5.10;;;;;;;;;;5026595;28;20033;-69
2022/07/30 02:34:11;;;;;;;7.15;4.80;;;;;;;;;;5035769;28;20032;-69
2022/07/30 02:36:40;;;;;;;5.45;4.82;;;;;;;;;;5034175;28;20076;-70
2022/07/30 02:39:07;;;;;;;6.18;5.05;;;;;;;;;;5025173;28;20064;-69
2022/07/30 02:41:35;;;;;;;5.97;5.18;;;;;;;;;;5009348;28;20546;-69
2022/07/30 02:44:01;;;;;;;6.70;5.55;;;;;;;;;;5028586;28;20029;-70
2022/07/30 02:46:28;;;;;;;5.72;4.82;;;;;;;;;;5024318;28;20021;-69
2022/07/30 02:48:55;;;;;;;5.57;5.07;;;;;;;;;;5034925;28;20055;-69
2022/07/30 02:51:21;;;;;;;5.78;4.97;;;;;;;;;;5027982;28;20075;-69
2022/07/30 02:53:48;;;;;;;6.93;4.97;;;;;;;;;;5026897;28;20033;-70
2022/07/30 02:56:14;;;;;;;5.60;5.00;;;;;;;;;;5027911;28;20411;-69
2022/07/30 02:58:42;;;;;;;5.80;5.20;;;;;;;;;;5028289;28;20539;-69
2022/07/30 03:01:08;;;;;;;7.32;4.40;;;;;;;;;;5026930;28;20033;-70
2022/07/30 03:03:34;;;;;;;4.45;4.03;;;;;;;;;;5036232;28;20473;-69
2022/07/30 03:06:01;;;;;;;7.07;4.45;;;;;;;;;;5022884;28;20109;-69
2022/07/30 03:08:27;;;;;;;13.35;5.45;;;;;;;;;;5027395;28;20442;-69
2022/07/30 03:10:54;;;;;;;5.15;4.65;;;;;;;;;;5025706;28;20167;-70
2022/07/30 03:13:21;;;;;;;5.38;4.72;;;;;;;;;;5021726;28;20057;-70
2022/07/30 03:15:49;;;;;;;5.68;4.78;;;;;;;;;;5026894;28;20032;-69
2022/07/30 03:18:16;;;;;;;5.30;4.90;;;;;;;;;;5035219;28;20047;-69
2022/07/30 03:20:46;;;;;;;6.30;5.70;;;;;;;;;;5028007;28;20087;-69
2022/07/30 03:23:14;;;;;;;5.25;4.75;;;;;;;;;;5028159;28;20078;-70
2022/07/30 03:25:41;;;;;;;5.55;5.05;;;;;;;;;;5028307;28;20029;-70
2022/07/30 03:28:06;;;;;;;5.47;4.70;;;;;;;;;;5023998;28;20399;-70
2022/07/30 03:30:33;;;;;;;6.40;5.15;;;;;;;;;;5021643;28;20037;-70
2022/07/30 03:32:59;;;;;;;6.63;5.03;;;;;;;;;;5019242;28;20022;-70
2022/07/30 03:35:25;;;;;;;6.15;4.95;;;;;;;;;;5036666;28;20036;-69
2022/07/30 03:37:52;;;;;;;5.63;5.13;;;;;;;;;;5032292;28;20100;-70
2022/07/30 03:40:18;;;;;;;5.43;4.95;;;;;;;;;;5027851;28;20442;-69
2022/07/30 03:42:44;;;;;;;5.85;5.15;;;;;;;;;;5021400;28;20079;-70
2022/07/30 03:45:12;;;;;;;7.35;5.57;;;;;;;;;;5038191;28;20379;-70
2022/07/30 03:47:39;;;;;;;5.53;5.03;;;;;;;;;;5041755;28;20025;-70
2022/07/30 03:50:05;;;;;;;5.75;5.18;;;;;;;;;;5031266;28;20074;-70
2022/07/30 03:52:37;;;;;;;5.40;4.90;;;;;;;;;;5011812;28;20112;-70
2022/07/30 03:55:03;;;;;;;5.75;4.88;;;;;;;;;;5028289;28;20029;-70
2022/07/30 03:57:29;;;;;;;5.55;5.05;;;;;;;;;;5033326;28;20024;-70
2022/07/30 03:59:54;;;;;;;5.97;5.25;;;;;;;;;;5032704;28;20044;-70
2022/07/30 04:02:20;;;;;;;6.07;5.00;;;;;;;;;;5032199;28;20025;-70
2022/07/30 04:04:45;;;;;;;6.93;4.82;;;;;;;;;;5031270;28;20017;-72
2022/07/30 04:07:10;;;;;;;6.13;5.38;;;;;;;;;;5027522;28;20025;-72
2022/07/30 04:09:36;;;;;;;6.55;5.07;;;;;;;;;;5024725;28;20123;-72
2022/07/30 04:12:01;;;;;;;5.70;5.07;;;;;;;;;;5030249;28;20053;-73
2022/07/30 04:14:38;;;;;;;5.70;5.20;;;;;;;;;;5020746;28;20088;-72
2022/07/30 04:17:12;;;;;;;5.68;5.03;;;;;;;;;;5039384;28;20029;-72
2022/07/30 04:19:42;;;;;;;5.68;5.07;;;;;;;;;;5017170;28;20029;-72
2022/07/30 04:22:09;;;;;;;5.63;5.13;;;;;;;;;;5031540;28;20413;-72
2022/07/30 04:24:37;;;;;;;6.85;5.10;;;;;;;;;;5030877;28;20387;-73
2022/07/30 04:27:02;;;;;;;6.15;5.32;;;;;;;;;;5031354;28;20028;-72
2022/07/30 04:29:28;;;;;;;5.43;4.93;;;;;;;;;;5026861;28;20495;-73
2022/07/30 04:31:53;;;;;;;5.28;4.75;;;;;;;;;;5036749;28;20397;-72
2022/07/30 04:34:19;;;;;;;5.63;5.13;;;;;;;;;;5041423;28;20384;-72
2022/07/30 04:36:44;;;;;;;5.82;5.07;;;;;;;;;;5025928;28;20052;-73
2022/07/30 04:39:09;;;;;;;6.00;5.25;;;;;;;;;;5045888;28;20056;-72
2022/07/30 04:41:35;;;;;;;6.55;5.30;;;;;;;;;;5030807;28;20140;-72
2022/07/30 04:44:00;;;;;;;5.60;4.80;;;;;;;;;;5030284;28;20030;-73
2022/07/30 04:46:25;;;;;;;5.85;4.63;;;;;;;;;;5030541;28;20021;-72
2022/07/30 04:48:51;;;;;;;6.65;5.13;;;;;;;;;;5027655;28;20021;-72
2022/07/30 04:51:24;;;;;;;7.93;5.10;;;;;;;;;;5047333;28;20387;-72
2022/07/30 04:53:50;;;;;;;5.07;4.57;;;;;;;;;;5038240;28;20048;-72
2022/07/30 04:56:16;;;;;;;5.80;5.18;;;;;;;;;;5030336;28;20025;-72
2022/07/30 04:58:44;;;;;;;5.93;5.10;;;;;;;;;;5023391;28;20375;-71
2022/07/30 05:01:11;;;;;;;6.45;5.10;;;;;;;;;;5030292;28;20119;-71
2022/07/30 05:03:37;;;;;;;8.48;5.40;;;;;;;;;;5029923;28;20045;-71
2022/07/30 05:06:04;;;;;;;7.82;5.55;;;;;;;;;;5028839;28;20025;-71
2022/07/30 05:08:29;;;;;;;6.65;5.35;;;;;;;;;;5041909;28;20021;-71
2022/07/30 05:10:55;;;;;;;5.40;4.90;;;;;;;;;;5050139;28;20367;-71
2022/07/30 05:13:20;;;;;;;6.50;5.43;;;;;;;;;;5040108;28;20025;-71
2022/07/30 05:15:46;;;;;;;5.20;4.70;;;;;;;;;;5030193;28;20038;-71
2022/07/30 05:18:11;;;;;;;15.57;12.98;;;;;;;;;;5027465;28;20580;-71
2022/07/30 05:20:38;;;;;;;7.32;4.75;;;;;;;;;;5025340;28;20044;-71
2022/07/30 05:23:04;;;;;;;6.18;5.57;;;;;;;;;;5034034;28;20145;-71
2022/07/30 05:25:29;;;;;;;7.07;5.88;;;;;;;;;;5026522;28;20021;-72
2022/07/30 05:27:55;;;;;;;6.25;5.47;;;;;;;;;;5027786;28;20029;-72
2022/07/30 05:30:21;;;;;;;5.78;5.07;;;;;;;;;;5029870;28;20132;-71
2022/07/30 05:32:46;;;;;;;6.22;5.72;;;;;;;;;;5029455;28;20113;-71
2022/07/30 05:35:11;;;;;;;6.25;5.65;;;;;;;;;;5022296;28;20060;-71
2022/07/30 05:37:37;;;;;;;7.55;6.07;;;;;;;;;;5036678;28;20044;-71
2022/07/30 05:40:02;;;;;;;6.85;5.93;;;;;;;;;;5041075;28;20037;-71
2022/07/30 05:42:28;;;;;;;5.95;5.20;;;;;;;;;;5022288;28;20427;-71
2022/07/30 05:44:53;;;;;;;6.43;5.35;;;;;;;;;;5017413;28;20040;-71
2022/07/30 05:47:19;;;;;;;6.00;5.35;;;;;;;;;;5027882;28;20025;-71
2022/07/30 05:49:45;;;;;;;6.05;5.20;;;;;;;;;;5000423;28;20026;-71
2022/07/30 05:52:11;;;;;;;5.88;5.30;;;;;;;;;;5035434;28;20034;-71
2022/07/30 05:54:36;;;;;;;6.35;5.50;;;;;;;;;;5036052;28;20442;-71
2022/07/30 05:57:01;;;;;;;6.65;5.30;;;;;;;;;;5020959;28;20141;-71
2022/07/30 05:59:26;;;;;;;6.45;5.80;;;;;;;;;;5028100;28;20044;-71
2022/07/30 06:01:52;;;;;;;6.93;5.22;;;;;;;;;;5035689;28;20064;-71
2022/07/30 06:04:17;;;;;;;6.05;5.45;;;;;;;;;;5030229;28;20033;-71
2022/07/30 06:06:42;;;;;;;6.78;5.50;;;;;;;;;;5015734;28;20090;-71
2022/07/30 06:09:08;;;;;;;7.15;5.53;;;;;;;;;;5028688;28;20056;-71
2022/07/30 06:11:33;;;;;;;7.22;5.30;;;;;;;;;;5048949;28;20504;-70
2022/07/30 06:13:58;;;;;;;6.30;4.97;;;;;;;;;;5037424;28;20021;-71
2022/07/30 06:16:23;;;;;;;5.65;5.15;;;;;;;;;;5028057;28;20025;-71
2022/07/30 06:18:49;;;;;;;5.32;4.70;;;;;;;;;;5029883;28;20489;-70
2022/07/30 06:21:14;;;;;;;5.82;4.82;;;;;;;;;;5042352;28;20083;-70
2022/07/30 06:23:39;;;;;;;6.63;5.07;;;;;;;;;;5021744;28;20022;-71
2022/07/30 06:26:04;;;;;;;5.55;4.43;;;;;;;;;;5027669;28;20036;-70
2022/07/30 06:28:30;;;;;;;5.05;4.55;;;;;;;;;;5026505;28;20029;-70
2022/07/30 06:30:56;;;;;;;4.10;3.63;;;;;;;;;;5021245;28;20051;-70
2022/07/30 06:33:21;;;;;;;6.00;4.10;;;;;;;;;;5027855;28;20025;-70
2022/07/30 06:35:47;;;;;;;6.32;4.10;;;;;;;;;;5024176;28;20036;-71
2022/07/30 06:38:13;;;;;;;5.88;3.97;;;;;;;;;;5017579;28;20030;-70
2022/07/30 06:40:38;;;;;;;5.85;4.63;;;;;;;;;;5020366;28;20075;-71
2022/07/30 06:43:03;;;;;;;5.85;4.28;;;;;;;;;;5020798;28;20076;-70
2022/07/30 06:45:29;;;;;;;8.15;4.05;;;;;;;;;;5016975;28;20440;-71
2022/07/30 06:47:58;;;;;;;4.30;3.90;;;;;;;;;;5026956;28;20023;-70
2022/07/30 06:50:24;;;;;;;4.45;3.97;;;;;;;;;;5039267;28;20032;-70
2022/07/30 06:52:50;;;;;;;6.18;4.18;;;;;;;;;;5023558;28;20108;-70
2022/07/30 06:55:15;;;;;;;4.45;4.00;;;;;;;;;;5028315;28;20117;-70
2022/07/30 06:57:40;;;;;;;5.10;4.05;;;;;;;;;;5024747;28;20051;-71
2022/07/30 07:00:06;;;;;;;5.18;4.25;;;;;;;;;;5023459;28;21887;-70
2022/07/30 07:02:32;;;;;;;5.13;4.20;;;;;;;;;;5017389;28;20399;-70
2022/07/30 07:04:57;;;;;;;6.22;4.20;;;;;;;;;;5030520;28;20323;-70
2022/07/30 07:07:23;;;;;;;5.38;3.95;;;;;;;;;;5020886;28;20042;-71
2022/07/30 07:09:49;;;;;;;6.13;3.97;;;;;;;;;;5014209;28;20036;-70
2022/07/30 07:12:14;;;;;;;4.93;4.15;;;;;;;;;;5026739;28;20090;-70
2022/07/30 07:14:39;;;;;;;4.28;3.88;;;;;;;;;;5017000;28;20057;-70
2022/07/30 07:17:04;;;;;;;5.07;4.55;;;;;;;;;;5043463;28;20021;-70
2022/07/30 07:19:30;;;;;;;4.43;4.03;;;;;;;;;;5033409;28;20509;-71
2022/07/30 07:21:55;;;;;;;5.53;3.88;;;;;;;;;;5029797;28;20047;-70
2022/07/30 07:24:20;;;;;;;6.45;4.22;;;;;;;;;;5034772;28;20022;-70
2022/07/30 07:26:46;;;;;;;6.05;4.20;;;;;;;;;;5034659;28;20104;-70
2022/07/30 07:29:11;;;;;;;4.70;4.15;;;;;;;;;;5031970;28;20021;-70
2022/07/30 07:31:36;;;;;;;6.32;4.80;;;;;;;;;;5027130;28;20033;-70
2022/07/30 07:34:02;;;;;;;5.40;4.50;;;;;;;;;;5033695;28;20022;-69
2022/07/30 07:36:27;;;;;;;7.28;4.50;;;;;;;;;;5034412;28;20033;-69
2022/07/30 07:38:53;;;;;;;5.30;4.00;;;;;;;;;;5034344;28;20111;-70
2022/07/30 07:41:18;;;;;;;6.70;4.78;;;;;;;;;;5034163;28;20141;-70
2022/07/30 07:43:43;;;;;;;6.38;4.28;;;;;;;;;;5031148;28;20040;-70
2022/07/30 07:46:09;;;;;;;7.75;4.72;;;;;;;;;;5035914;28;20032;-70
2022/07/30 07:48:34;;;;;;;6.68;4.40;;;;;;;;;;5044138;28;20031;-71
2022/07/30 07:50:59;;;;;;;5.53;4.35;;;;;;;;;;5041699;28;20034;-70
2022/07/30 07:53:25;;;;;;;6.97;4.25;;;;;;;;;;5053610;28;20516;-70
2022/07/30 07:55:50;;;;;;;6.05;4.10;;;;;;;;;;5036850;28;20017;-70
2022/07/30 07:58:16;;;;;;;5.55;3.78;;;;;;;;;;5042312;28;20357;-70
2022/07/30 08:00:41;;;;;;;4.53;4.00;;;;;;;;;;5030796;28;20040;-70
2022/07/30 08:03:07;;;;;;;4.95;3.83;;;;;;;;;;5037766;28;20394;-70
2022/07/30 08:05:32;;;;;;;4.25;3.50;;;;;;;;;;5041883;28;20037;-70
2022/07/30 08:07:58;;;;;;;5.78;2.90;;;;;;;;;;5039540;28;20026;-70
2022/07/30 08:10:24;;;;;;;4.40;2.72;;;;;;;;;;5034632;28;20041;-71
2022/07/30 08:12:49;;;;;;;4.97;3.03;;;;;;;;;;5040777;28;20037;-70
2022/07/30 08:15:14;;;;;;;3.47;3.00;;;;;;;;;;5034324;28;20438;-70
2022/07/30 08:17:41;;;;;;;5.35;3.10;;;;;;;;;;5042897;28;20288;-70
2022/07/30 08:20:07;;;;;;;4.65;2.67;;;;;;;;;;5053531;28;20138;-71
2022/07/30 08:22:33;;;;;;;2.85;2.42;;;;;;;;;;5018028;28;20510;-70
2022/07/30 08:24:59;;;;;;;6.80;2.50;;;;;;;;;;5014451;28;20104;-70
2022/07/30 08:27:25;;;;;;;5.63;2.78;;;;;;;;;;5014771;28;20262;-70
2022/07/30 08:29:50;;;;;;;6.40;3.03;;;;;;;;;;5010713;28;20331;-70
2022/07/30 08:32:15;;;;;;;3.88;2.53;;;;;;;;;;5011363;28;20034;-71
2022/07/30 08:34:41;;;;;;;6.43;2.70;;;;;;;;;;5026555;28;20021;-70
2022/07/30 08:37:06;;;;;;;4.03;2.70;;;;;;;;;;5030975;28;20143;-70
2022/07/30 08:39:31;;;;;;;6.07;2.70;;;;;;;;;;5030148;28;20255;-70
2022/07/30 08:41:57;;;;;;;5.03;2.33;;;;;;;;;;5036296;28;20471;-71
2022/07/30 08:44:25;;;;;;;4.38;2.47;;;;;;;;;;5030654;28;20033;-70
2022/07/30 08:46:52;;;;;;;5.60;2.20;;;;;;;;;;5039937;28;20037;-71
2022/07/30 08:49:18;;;;;;;3.13;2.10;;;;;;;;;;5036412;28;20021;-71
2022/07/30 08:51:43;;;;;;;3.15;2.22;;;;;;;;;;5038491;28;20517;-70
2022/07/30 08:54:08;;;;;;;3.60;2.20;;;;;;;;;;5020964;28;20049;-69
2022/07/30 08:56:34;;;;;;;4.03;1.90;;;;;;;;;;5026821;28;20033;-70
2022/07/30 08:59:00;;;;;;;6.50;1.92;;;;;;;;;;5040732;28;20086;-71
2022/07/30 09:01:26;;;;;;;5.13;2.03;;;;;;;;;;5038367;28;20060;-70
2022/07/30 09:03:51;;;;;;;3.63;1.60;;;;;;;;;;5035109;28;20383;-70
2022/07/30 09:06:17;;;;;;;4.20;1.50;;;;;;;;;;5032581;28;20030;-70
2022/07/30 09:08:42;;;;;;;2.90;1.42;;;;;;;;;;5032854;28;20415;-70
2022/07/30 09:11:08;;;;;;;3.83;1.70;;;;;;;;;;5038496;28;20059;-70
2022/07/30 09:13:38;;;;;;;2.80;1.48;;;;;;;;;;5036536;28;20041;-70
2022/07/30 09:16:04;;;;;;;1.73;1.35;;;;;;;;;;5034191;28;20038;-70
2022/07/30 09:18:33;;;;;;;2.72;1.70;;;;;;;;;;5038267;28;20040;-70
2022/07/30 09:21:15;;;;;;;3.58;1.50;;;;;;;;;;5049734;28;20029;-70
2022/07/30 09:23:53;;;;;;;1.90;1.40;;;;;;;;;;5033527;28;20058;-69
2022/07/30 09:26:18;;;;;;;2.20;1.25;;;;;;;;;;5030208;28;20045;-70
2022/07/30 09:28:44;;;;;;;2.27;1.20;;;;;;;;;;5028779;28;20072;-70
2022/07/30 09:31:09;;;;;;;3.40;1.30;;;;;;;;;;5029441;28;20021;-70
2022/07/30 09:33:39;;;;;;;2.65;1.50;;;;;;;;;;5029823;28;20083;-70
2022/07/30 09:36:05;;;;;;;2.35;1.30;;;;;;;;;;4993506;28;20029;-69
2022/07/30 09:38:44;;;;;;;3.58;1.40;;;;;;;;;;5010186;28;20042;-70
2022/07/30 09:41:11;;;;;;;2.65;1.70;;;;;;;;;;5008502;28;20021;-70
2022/07/30 09:43:48;;;;;;;2.33;1.30;;;;;;;;;;5010062;28;20169;-69
2022/07/30 09:46:14;;;;;;;2.40;1.50;;;;;;;;;;5029305;28;20037;-69
2022/07/30 09:48:40;;;;;;;2.78;1.15;;;;;;;;;;5030855;28;20029;-69
2022/07/30 09:51:05;;;;;;;2.92;1.30;;;;;;;;;;5033089;28;20078;-68
2022/07/30 09:53:31;;;;;;;2.35;1.40;;;;;;;;;;5033648;28;20483;-70
2022/07/30 09:55:58;;;;;;;2.22;1.20;;;;;;;;;;5034050;28;20040;-69
2022/07/30 09:58:35;;;;;;;2.92;1.40;;;;;;;;;;5037417;28;20060;-68
2022/07/30 10:01:01;;;;;;;1.83;1.17;;;;;;;;;;5037304;28;20112;-69
2022/07/30 10:03:26;;;;;;;3.35;1.50;;;;;;;;;;5024658;28;20108;-69
2022/07/30 10:05:54;;;;;;;3.83;1.40;;;;;;;;;;5037246;28;20252;-68
2022/07/30 10:08:36;;;;;;;5.50;1.40;;;;;;;;;;5037363;28;20740;-69
2022/07/30 10:11:01;;;;;;;2.65;1.42;;;;;;;;;;5032385;28;20032;-69
2022/07/30 10:13:27;;;;;;;2.50;1.73;;;;;;;;;;5034711;28;20482;-69
2022/07/30 10:15:52;;;;;;;2.60;1.50;;;;;;;;;;5034003;28;20072;-68
2022/07/30 10:18:17;;;;;;;4.07;1.20;;;;;;;;;;5033354;28;20332;-68
2022/07/30 10:20:43;;;;;;;1.83;1.25;;;;;;;;;;5028303;28;20033;-69
2022/07/30 10:23:09;;;;;;;1.98;1.48;;;;;;;;;;5048876;28;20036;-69
2022/07/30 10:25:36;;;;;;;1.67;1.38;;;;;;;;;;5032188;28;20033;-69
2022/07/30 10:28:02;;;;;;;1.42;1.20;;;;;;;;;;5028915;28;20025;-69
2022/07/30 10:30:29;;;;;;;2.20;1.20;;;;;;;;;;5028959;28;20104;-69
2022/07/30 10:32:55;;;;;;;3.63;1.35;;;;;;;;;;5029128;28;20490;-70
2022/07/30 10:35:21;;;;;;;4.72;1.45;;;;;;;;;;5028908;28;20025;-69
2022/07/30 10:37:49;;;;;;;3.53;1.30;;;;;;;;;;5012572;28;20076;-70
2022/07/30 10:40:25;;;;;;;2.38;1.10;;;;;;;;;;5008764;28;20444;-70
2022/07/30 10:43:06;;;;;;;2.83;1.10;;;;;;;;;;5008966;28;20403;-70
2022/07/30 10:45:49;;;;;;;3.08;1.40;;;;;;;;;;5008857;28;20034;-69
2022/07/30 10:48:18;;;;;;;6.18;1.30;;;;;;;;;;5010449;28;20037;-69
2022/07/30 10:51:02;;;;;;;1.63;1.02;;;;;;;;;;5020149;28;20032;-69
2022/07/30 10:53:37;;;;;;;1.70;1.20;;;;;;;;;;5021523;28;20502;-69
2022/07/30 10:56:22;;;;;;;2.20;1.30;;;;;;;;;;5025225;28;20022;-69
2022/07/30 10:59:08;;;;;;;4.22;1.50;;;;;;;;;;5027589;28;20494;-72
2022/07/30 11:01:48;;;;;;;2.42;1.30;;;;;;;;;;5020532;28;20037;-70
2022/07/30 11:04:17;;;;;;;1.48;1.20;;;;;;;;;;5034396;28;20048;-71
2022/07/30 11:06:43;;;;;;;2.47;1.38;;;;;;;;;;5035197;28;20037;-72
2022/07/30 11:09:37;;;;;;;2.75;1.23;;;;;;;;;;5023275;28;20112;-72
2022/07/30 11:12:07;;;;;;;2.60;1.20;;;;;;;;;;5030722;28;20033;-70
2022/07/30 11:14:45;;;;;;;1.70;1.42;;;;;;;;;;5017052;28;20178;-70
2022/07/30 11:17:11;;;;;;;1.40;1.27;;;;;;;;;;5032851;28;20037;-72
2022/07/30 11:20:08;;;;;;;5.15;1.05;;;;;;;;;;5032965;28;20033;-70
2022/07/30 11:22:39;;;;;;;1.50;1.10;;;;;;;;;;5033143;28;20471;-71
2022/07/30 11:25:05;;;;;;;1.10;1.00;;;;;;;;;;5025161;28;20113;-72
2022/07/30 11:27:38;;;;;;;2.33;0.90;;;;;;;;;;5024908;28;20042;-71
2022/07/30 11:30:24;;;;;;;3.20;1.10;;;;;;;;;;5024812;28;20029;-71
2022/07/30 11:33:16;;;;;;;2.45;1.10;;;;;;;;;;5027988;28;20033;-71
2022/07/30 11:35:42;;;;;;;1.00;1.00;;;;;;;;;;5008283;28;20470;-70
2022/07/30 11:38:14;;;;;;;1.20;0.82;;;;;;;;;;5013447;28;20033;-69
2022/07/30 11:40:48;;;;;;;1.23;0.90;;;;;;;;;;5027810;28;20022;-70
2022/07/30 11:43:17;;;;;;;1.98;0.98;;;;;;;;;;5027745;28;20465;-69
2022/07/30 11:45:43;;;;;;;0.90;0.85;;;;;;;;;;5027344;28;20022;-70
2022/07/30 11:48:11;;;;;;;1.40;1.15;;;;;;;;;;5028104;28;20034;-70
2022/07/30 11:50:36;;;;;;;1.35;0.82;;;;;;;;;;5021088;28;20100;-69
2022/07/30 11:53:04;;;;;;;1.25;0.93;;;;;;;;;;5037654;28;20040;-72
2022/07/30 11:55:33;;;;;;;2.60;1.15;;;;;;;;;;5034433;28;20487;-72
2022/07/30 11:58:01;;;;;;;1.58;0.95;;;;;;;;;;5015864;28;20064;-70
2022/07/30 12:00:40;;;;;;;1.25;0.90;;;;;;;;;;5020695;28;20118;-69
2022/07/30 12:03:10;;;;;;;2.38;1.15;;;;;;;;;;5027989;28;20041;-69
2022/07/30 12:05:36;;;;;;;1.08;0.82;;;;;;;;;;5024767;28;20045;-69
2022/07/30 12:08:02;;;;;;;1.73;1.10;;;;;;;;;;5023475;28;20140;-68
2022/07/30 12:10:27;;;;;;;0.95;0.90;;;;;;;;;;5033459;28;20254;-69
2022/07/30 12:13:05;;;;;;;2.00;1.00;;;;;;;;;;5026825;28;20060;-68
2022/07/30 12:15:33;;;;;;;1.02;0.93;;;;;;;;;;5040509;28;20036;-68
2022/07/30 12:17:59;;;;;;;2.88;1.00;;;;;;;;;;5031577;28;20036;-68
2022/07/30 12:20:25;;;;;;;3.58;0.93;;;;;;;;;;5030329;28;20502;-69
2022/07/30 12:22:51;;;;;;;1.65;1.15;;;;;;;;;;5034891;28;20034;-70
2022/07/30 12:25:17;;;;;;;5.30;4.80;;;;;;;;;;5029776;28;20025;-68
2022/07/30 12:27:47;;;;;;;1.38;1.10;;;;;;;;;;5038429;28;20025;-69
2022/07/30 12:30:14;;;;;;;1.48;0.82;;;;;;;;;;5037574;28;20348;-69
2022/07/30 12:32:41;;;;;;;1.52;0.90;;;;;;;;;;5046031;28;20061;-68
2022/07/30 12:35:07;;;;;;;1.23;0.90;;;;;;;;;;5029746;28;20031;-71
2022/07/30 12:37:32;;;;;;;1.00;0.90;;;;;;;;;;5036646;28;20105;-72
2022/07/30 12:40:24;;;;;;;1.08;0.98;;;;;;;;;;5026010;28;20072;-68
2022/07/30 12:42:50;;;;;;;;;;;;;;;;;;5026547;28;20045;-70
2022/07/30 12:45:30;;;;;;;1.33;1.00;;;;;;;;;;5012586;28;19917;-68
2022/07/30 12:47:59;;;;;;;1.25;1.05;;;;;;;;;;5016656;28;20488;-68
2022/07/30 12:50:26;;;;;;;1.10;1.00;;;;;;;;;;5018337;28;20029;-70
2022/07/30 12:52:53;;;;;;;2.78;1.25;;;;;;;;;;5014705;28;20036;-71
2022/07/30 12:55:28;;;;;;;2.40;1.10;;;;;;;;;;5013667;28;20087;-70
2022/07/30 12:58:00;;;;;;;0.90;0.75;;;;;;;;;;5016020;28;20483;-71
2022/07/30 13:00:30;;;;;;;1.75;1.02;;;;;;;;;;5020128;28;20044;-71
2022/07/30 13:02:56;;;;;;;1.70;1.10;;;;;;;;;;5036252;28;20142;-69
2022/07/30 13:05:44;;;;;;;2.33;0.80;;;;;;;;;;5048770;28;20133;-70
2022/07/30 13:08:10;;;;;;;1.42;0.85;;;;;;;;;;5022791;28;20396;-72
2022/07/30 13:10:35;;;;;;;1.27;1.00;;;;;;;;;;5029620;28;20037;-71
2022/07/30 13:13:01;;;;;;;2.47;0.90;;;;;;;;;;5032939;28;20045;-69
2022/07/30 13:15:26;;;;;;;1.02;0.80;;;;;;;;;;5036794;28;20036;-69
2022/07/30 13:17:52;;;;;;;1.35;0.90;;;;;;;;;;5036395;28;20033;-69
2022/07/30 13:20:17;;;;;;;1.35;1.00;;;;;;;;;;5047761;28;20029;-71
2022/07/30 13:22:43;;;;;;;1.33;0.88;;;;;;;;;;5039761;28;20029;-69
2022/07/30 13:25:09;;;;;;;3.38;1.40;;;;;;;;;;5029827;28;20175;-71
2022/07/30 13:27:35;;;;;;;1.08;1.00;;;;;;;;;;5029281;28;20489;-73
2022/07/30 13:30:02;;;;;;;1.58;1.17;;;;;;;;;;5031076;28;20025;-69
2022/07/30 13:32:27;;;;;;;1.00;0.90;;;;;;;;;;5030157;28;20144;-70
2022/07/30 13:34:52;;;;;;;1.67;1.10;;;;;;;;;;5020045;28;20148;-71
2022/07/30 13:37:18;;;;;;;1.42;1.10;;;;;;;;;;5010061;28;20034;-68
2022/07/30 13:39:43;;;;;;;1.57;1.40;;;;;;;;;;5009732;28;20041;-70
2022/07/30 13:42:08;;;;;;;2.35;0.80;;;;;;;;;;5010039;28;20318;-69
2022/07/30 13:44:34;;;;;;;1.50;0.98;;;;;;;;;;5021112;28;20033;-71
2022/07/30 13:46:59;;;;;;;1.52;1.42;;;;;;;;;;5029590;28;20025;-71
2022/07/30 13:49:24;;;;;;;1.30;1.20;;;;;;;;;;5021660;28;20034;-69
2022/07/30 13:51:49;;;;;;;1.83;1.25;;;;;;;;;;5037981;28;20287;-72
2022/07/30 13:54:15;;;;;;;1.73;1.10;;;;;;;;;;5037575;28;20115;-70
2022/07/30 13:56:40;;;;;;;2.35;1.20;;;;;;;;;;5039679;28;20269;-71
2022/07/30 13:59:05;;;;;;;1.25;1.08;;;;;;;;;;5035944;28;20033;-69
2022/07/30 14:01:31;;;;;;;2.15;1.23;;;;;;;;;;5037231;28;20030;-73
2022/07/30 14:03:56;;;;;;;1.30;1.20;;;;;;;;;;5034415;28;20056;-69
2022/07/30 14:06:21;;;;;;;1.65;1.00;;;;;;;;;;5028579;28;20033;-75
2022/07/30 14:08:47;;;;;;;1.15;0.98;;;;;;;;;;5026931;28;20079;-69
2022/07/30 14:11:12;;;;;;;1.38;0.90;;;;;;;;;;5037295;28;20402;-71
2022/07/30 14:13:38;;;;;;;2.28;1.08;;;;;;;;;;5027215;28;20029;-71
2022/07/30 14:16:03;;;;;;;1.00;0.80;;;;;;;;;;5039918;28;20044;-69
2022/07/30 14:18:29;;;;;;;1.33;0.80;;;;;;;;;;5034051;28;20039;-69
2022/07/30 14:20:54;;;;;;;1.48;0.90;;;;;;;;;;5033022;28;20478;-69
2022/07/30 14:23:20;;;;;;;1.40;1.30;;;;;;;;;;5029444;28;20034;-69
2022/07/30 14:25:45;;;;;;;2.17;1.07;;;;;;;;;;5033004;28;20284;-69
2022/07/30 14:28:10;;;;;;;1.05;0.90;;;;;;;;;;5038824;28;20349;-69
2022/07/30 14:30:36;;;;;;;0.90;0.90;;;;;;;;;;5027222;28;20064;-70
2022/07/30 14:33:01;;;;;;;1.30;1.10;;;;;;;;;;5034628;28;20025;-70
2022/07/30 14:35:27;;;;;;;1.52;0.80;;;;;;;;;;5037398;28;20063;-69
2022/07/30 14:37:52;;;;;;;1.40;1.10;;;;;;;;;;5035678;28;20029;-70
2022/07/30 14:40:18;;;;;;;1.20;0.80;;;;;;;;;;5037040;28;20025;-69
2022/07/30 14:42:46;;;;;;;2.78;1.48;;;;;;;;;;5034713;28;20048;-70
2022/07/30 14:45:11;;;;;;;1.00;0.90;;;;;;;;;;5038738;28;20395;-69
2022/07/30 14:47:38;;;;;;;1.88;1.50;;;;;;;;;;5037458;28;20502;-69
2022/07/30 14:50:03;;;;;;;2.97;2.20;;;;;;;;;;5018160;28;20766;-68